createdAt,value
2023-01-15T00:01:25.177Z,11.63
2023-01-15T00:03:52.950Z,12.22
2023-01-15T00:06:20.304Z,12.07
2023-01-15T00:08:47.849Z,12.09
2023-01-15T00:11:14.675Z,11.83
2023-01-15T00:13:41.758Z,11.96
2023-01-15T00:16:12.891Z,11.90
2023-01-15T00:18:39.887Z,12.13
2023-01-15T00:21:09.882Z,11.90
2023-01-15T00:23:36.618Z,11.86
2023-01-15T00:26:03.419Z,12.36
2023-01-15T00:28:30.094Z,12.09
2023-01-15T00:30:56.871Z,11.71
2023-01-15T00:33:25.084Z,11.60
2023-01-15T00:35:51.819Z,11.60
2023-01-15T00:38:18.541Z,11.76
2023-01-15T00:40:45.191Z,11.97
2023-01-15T00:43:11.880Z,11.63
2023-01-15T00:45:38.834Z,11.58
2023-01-15T00:48:05.783Z,11.84
2023-01-15T00:50:33.829Z,11.60
2023-01-15T00:53:00.525Z,11.55
2023-01-15T00:55:27.316Z,12.47
2023-01-15T00:57:54.136Z,12.49
2023-01-15T01:00:21.123Z,12.57
2023-01-15T01:02:47.864Z,12.61
2023-01-15T01:05:14.770Z,12.47
2023-01-15T01:07:42.920Z,12.18
2023-01-15T01:10:10.362Z,12.61
2023-01-15T01:12:37.106Z,12.55
2023-01-15T01:15:04.662Z,12.36
2023-01-15T01:17:31.351Z,12.21
2023-01-15T01:19:58.016Z,12.38
2023-01-15T01:22:24.984Z,12.48
2023-01-15T01:24:53.388Z,12.46
2023-01-15T01:27:20.403Z,12.32
2023-01-15T01:29:47.360Z,12.04
2023-01-15T01:32:14.013Z,12.43
2023-01-15T01:34:40.832Z,12.42
2023-01-15T01:37:07.551Z,11.74
2023-01-15T01:39:34.265Z,11.76
2023-01-15T01:42:02.561Z,11.53
2023-01-15T01:45:02.919Z,11.95
2023-01-15T01:47:31.312Z,12.09
2023-01-15T01:50:01.977Z,12.16
2023-01-15T01:52:32.939Z,11.81
2023-01-15T01:55:02.722Z,11.62
2023-01-15T01:57:31.192Z,12.10
2023-01-15T01:59:59.109Z,11.73
2023-01-15T02:02:26.192Z,11.57
2023-01-15T02:04:56.032Z,11.95
2023-01-15T02:07:22.798Z,11.70
2023-01-15T02:09:49.535Z,11.77
2023-01-15T02:12:22.763Z,12.10
2023-01-15T02:14:59.674Z,11.73
2023-01-15T02:17:33.481Z,11.80
2023-01-15T02:20:24.838Z,12.00
2023-01-15T02:23:16.293Z,12.03
2023-01-15T02:25:58.123Z,11.89
2023-01-15T02:28:29.200Z,11.33
2023-01-15T02:31:02.927Z,11.90
2023-01-15T02:33:35.724Z,11.57
2023-01-15T02:36:03.611Z,11.66
2023-01-15T02:38:34.121Z,11.65
2023-01-15T02:41:05.783Z,11.72
2023-01-15T02:43:36.766Z,11.81
2023-01-15T02:46:05.719Z,12.08
2023-01-15T02:48:36.449Z,11.57
2023-01-15T02:51:09.303Z,11.42
2023-01-15T02:53:39.260Z,11.73
2023-01-15T02:56:11.945Z,11.21
2023-01-15T02:58:43.806Z,11.63
2023-01-15T03:01:15.098Z,11.48
2023-01-15T03:03:49.605Z,12.00
2023-01-15T03:06:22.084Z,11.54
2023-01-15T03:08:48.943Z,11.91
2023-01-15T03:11:18.632Z,11.77
2023-01-15T03:13:51.228Z,12.15
2023-01-15T03:16:27.333Z,11.57
2023-01-15T03:19:06.122Z,11.50
2023-01-15T03:21:44.211Z,11.58
2023-01-15T03:24:13.107Z,12.15
2023-01-15T03:26:39.853Z,11.70
2023-01-15T03:29:09.535Z,11.99
2023-01-15T03:31:36.815Z,11.72
2023-01-15T03:34:04.125Z,11.87
2023-01-15T03:36:30.903Z,11.87
2023-01-15T03:38:58.811Z,11.66
2023-01-15T03:41:31.857Z,12.00
2023-01-15T03:44:08.672Z,11.73
2023-01-15T03:46:54.488Z,11.68
2023-01-15T03:49:28.439Z,12.12
2023-01-15T03:52:01.802Z,11.97
2023-01-15T03:54:42.481Z,12.31
2023-01-15T03:57:15.200Z,12.37
2023-01-15T03:59:49.971Z,11.78
2023-01-15T04:02:21.792Z,11.96
2023-01-15T04:04:50.699Z,11.92
2023-01-15T04:07:17.962Z,12.10
2023-01-15T04:09:44.688Z,12.03
2023-01-15T04:12:11.496Z,11.67
2023-01-15T04:14:38.486Z,12.25
2023-01-15T04:17:05.159Z,12.26
2023-01-15T04:19:33.569Z,12.39
2023-01-15T04:22:00.309Z,12.87
2023-01-15T04:24:27.058Z,12.79
2023-01-15T04:26:53.806Z,12.61
2023-01-15T04:29:20.902Z,12.51
2023-01-15T04:31:47.648Z,12.35
2023-01-15T04:34:14.415Z,12.06
2023-01-15T04:36:42.514Z,12.26
2023-01-15T04:39:10.322Z,12.18
2023-01-15T04:41:37.003Z,12.60
2023-01-15T04:44:04.012Z,12.18
2023-01-15T04:46:30.947Z,12.77
2023-01-15T04:48:57.682Z,12.26
2023-01-15T04:51:24.428Z,12.11
2023-01-15T04:53:52.628Z,12.21
2023-01-15T04:56:19.430Z,12.35
2023-01-15T04:58:46.163Z,12.49
2023-01-15T05:01:14.509Z,12.48
2023-01-15T05:03:42.465Z,12.69
2023-01-15T05:06:09.963Z,13.03
2023-01-15T05:08:36.771Z,13.06
2023-01-15T05:11:06.890Z,12.63
2023-01-15T05:13:33.711Z,12.93
2023-01-15T05:16:08.758Z,13.32
2023-01-15T05:18:35.560Z,12.99
2023-01-15T05:21:02.280Z,12.96
2023-01-15T05:23:29.041Z,12.73
2023-01-15T05:25:56.011Z,12.26
2023-01-15T05:28:24.098Z,12.93
2023-01-15T05:30:50.867Z,13.05
2023-01-15T05:33:17.585Z,12.90
2023-01-15T05:35:44.280Z,12.90
2023-01-15T05:38:10.968Z,12.66
2023-01-15T05:40:37.634Z,12.32
2023-01-15T05:43:04.322Z,12.99
2023-01-15T05:45:34.977Z,12.71
2023-01-15T05:48:01.634Z,13.24
2023-01-15T05:50:29.137Z,13.02
2023-01-15T05:52:55.877Z,13.39
2023-01-15T05:55:22.577Z,12.68
2023-01-15T05:57:49.260Z,13.06
2023-01-15T06:00:17.013Z,13.14
2023-01-15T06:02:49.391Z,13.37
2023-01-15T06:05:16.789Z,12.90
2023-01-15T06:07:43.591Z,13.18
2023-01-15T06:10:10.564Z,13.66
2023-01-15T06:12:37.284Z,13.51
2023-01-15T06:15:04.644Z,13.30
2023-01-15T06:17:31.343Z,13.63
2023-01-15T06:19:59.503Z,13.31
2023-01-15T06:22:26.194Z,13.13
2023-01-15T06:24:52.848Z,13.66
2023-01-15T06:27:19.611Z,13.47
2023-01-15T06:29:46.302Z,13.46
2023-01-15T06:32:13.586Z,13.74
2023-01-15T06:34:40.307Z,13.64
2023-01-15T06:37:08.376Z,13.24
2023-01-15T06:39:35.118Z,13.14
2023-01-15T06:42:01.942Z,12.98
2023-01-15T06:44:28.616Z,13.09
2023-01-15T06:46:55.369Z,12.85
2023-01-15T06:49:22.173Z,12.67
2023-01-15T06:51:48.863Z,12.35
2023-01-15T06:54:16.944Z,12.33
2023-01-15T06:56:43.651Z,12.77
2023-01-15T06:59:12.515Z,12.90
2023-01-15T07:01:39.478Z,12.89
2023-01-15T07:04:06.253Z,12.88
2023-01-15T07:06:32.967Z,12.86
2023-01-15T07:08:59.797Z,13.15
2023-01-15T07:11:27.974Z,13.51
2023-01-15T07:13:54.702Z,13.46
2023-01-15T07:16:21.452Z,13.06
2023-01-15T07:18:48.189Z,13.20
2023-01-15T07:21:14.903Z,13.67
2023-01-15T07:23:41.579Z,13.15
2023-01-15T07:26:08.388Z,13.59
2023-01-15T07:28:36.540Z,13.63
2023-01-15T07:31:03.312Z,13.54
2023-01-15T07:33:30.264Z,13.38
2023-01-15T07:35:56.955Z,13.83
2023-01-15T07:38:23.700Z,13.37
2023-01-15T07:40:50.440Z,13.75
2023-01-15T07:43:17.108Z,13.73
2023-01-15T07:45:45.303Z,13.55
2023-01-15T07:48:12.079Z,13.56
2023-01-15T07:50:38.895Z,13.58
2023-01-15T07:53:05.607Z,13.77
2023-01-15T07:55:32.428Z,13.67
2023-01-15T07:57:59.097Z,14.26
2023-01-15T08:00:25.795Z,14.12
2023-01-15T08:02:53.922Z,14.27
2023-01-15T08:05:21.061Z,14.34
2023-01-15T08:07:48.095Z,14.16
2023-01-15T08:10:15.116Z,14.04
2023-01-15T08:12:41.983Z,14.51
2023-01-15T08:15:10.248Z,14.29
2023-01-15T08:17:38.015Z,14.03
2023-01-15T08:20:08.506Z,13.51
2023-01-15T08:22:35.291Z,14.07
2023-01-15T08:25:02.071Z,14.16
2023-01-15T08:27:28.788Z,14.20
2023-01-15T08:29:55.581Z,13.72
2023-01-15T08:32:22.309Z,13.96
2023-01-15T08:34:49.053Z,14.07
2023-01-15T08:37:17.285Z,13.87
2023-01-15T08:39:44.287Z,13.33
2023-01-15T08:42:10.975Z,13.72
2023-01-15T08:44:37.643Z,13.94
2023-01-15T08:47:04.456Z,13.62
2023-01-15T08:49:31.183Z,13.34
2023-01-15T08:51:57.890Z,13.24
2023-01-15T08:54:26.031Z,13.53
2023-01-15T08:56:52.875Z,13.65
2023-01-15T08:59:19.690Z,13.81
2023-01-15T09:01:46.534Z,13.54
2023-01-15T09:04:14.277Z,14.03
2023-01-15T09:06:41.194Z,13.93
2023-01-15T09:09:08.006Z,13.87
2023-01-15T09:11:36.443Z,14.17
2023-01-15T09:14:03.240Z,14.18
2023-01-15T09:16:30.008Z,14.25
2023-01-15T09:18:56.689Z,13.85
2023-01-15T09:21:23.417Z,13.46
2023-01-15T09:23:50.136Z,13.46
2023-01-15T09:26:28.531Z,13.73
2023-01-15T09:28:56.888Z,13.35
2023-01-15T09:31:23.959Z,13.36
2023-01-15T09:33:50.918Z,13.64
2023-01-15T09:36:18.786Z,13.27
2023-01-15T09:38:45.525Z,13.70
2023-01-15T09:41:14.768Z,13.38
2023-01-15T09:43:52.109Z,13.96
2023-01-15T09:46:25.921Z,13.68
2023-01-15T09:49:03.441Z,14.09
2023-01-15T09:51:38.027Z,13.80
2023-01-15T09:54:20.891Z,13.82
2023-01-15T09:56:48.489Z,13.98
2023-01-15T09:59:22.533Z,14.32
2023-01-15T10:01:52.664Z,14.13
2023-01-15T10:04:34.312Z,14.54
2023-01-15T10:07:11.393Z,14.10
2023-01-15T10:09:40.681Z,14.08
2023-01-15T10:12:16.883Z,14.03
2023-01-15T10:14:50.445Z,13.95
2023-01-15T10:17:25.106Z,14.32
2023-01-15T10:19:52.551Z,14.35
2023-01-15T10:22:40.148Z,14.01
2023-01-15T10:25:15.179Z,14.47
2023-01-15T10:27:47.003Z,14.25
2023-01-15T10:30:16.927Z,14.16
2023-01-15T10:33:01.136Z,14.09
2023-01-15T10:35:40.398Z,14.37
2023-01-15T10:38:16.147Z,14.17
2023-01-15T10:41:24.039Z,14.12
2023-01-15T10:43:55.428Z,13.80
2023-01-15T10:46:25.972Z,14.25
2023-01-15T10:48:58.408Z,14.40
2023-01-15T10:51:29.763Z,14.77
2023-01-15T10:54:01.905Z,14.86
2023-01-15T10:56:34.618Z,14.92
2023-01-15T10:59:11.858Z,15.07
2023-01-15T11:01:40.493Z,14.56
2023-01-15T11:04:10.887Z,15.06
2023-01-15T11:06:37.705Z,15.27
2023-01-15T11:09:10.450Z,15.45
2023-01-15T11:11:43.525Z,14.51
2023-01-15T11:14:10.458Z,14.67
2023-01-15T11:16:38.240Z,14.46
2023-01-15T11:19:06.478Z,14.77
2023-01-15T11:21:42.415Z,15.14
2023-01-15T11:24:15.414Z,14.83
2023-01-15T11:26:48.062Z,15.00
2023-01-15T11:29:20.383Z,14.82
2023-01-15T11:31:47.090Z,14.57
2023-01-15T11:34:21.796Z,14.52
2023-01-15T11:37:01.728Z,14.65
2023-01-15T11:39:29.366Z,14.49
2023-01-15T11:41:59.278Z,14.40
2023-01-15T11:44:26.001Z,14.43
2023-01-15T11:46:55.578Z,14.34
2023-01-15T11:49:22.579Z,14.65
2023-01-15T11:51:50.744Z,14.65
2023-01-15T11:54:18.023Z,14.85
2023-01-15T11:56:45.976Z,15.13
2023-01-15T11:59:14.745Z,15.36
2023-01-15T12:01:50.361Z,15.43
2023-01-15T12:04:36.921Z,15.07
2023-01-15T12:07:11.728Z,14.86
2023-01-15T12:09:57.721Z,15.08
2023-01-15T12:12:37.234Z,15.19
2023-01-15T12:15:16.182Z,15.21
2023-01-15T12:18:06.393Z,15.23
2023-01-15T12:20:49.314Z,14.97
2023-01-15T12:23:47.296Z,15.17
2023-01-15T12:26:19.865Z,14.70
2023-01-15T12:28:55.089Z,14.06
2023-01-15T12:31:27.846Z,14.42
2023-01-15T12:34:01.351Z,14.35
2023-01-15T12:36:31.934Z,14.17
2023-01-15T12:39:01.741Z,13.92
2023-01-15T12:41:33.477Z,13.82
2023-01-15T12:44:00.293Z,13.98
2023-01-15T12:46:31.980Z,14.11
2023-01-15T12:49:06.743Z,13.99
2023-01-15T12:51:39.204Z,14.20
2023-01-15T12:54:13.411Z,14.17
2023-01-15T12:56:51.625Z,14.35
2023-01-15T12:59:24.347Z,14.47
2023-01-15T13:01:59.054Z,14.59
2023-01-15T13:04:32.675Z,14.84
2023-01-15T13:07:18.430Z,14.93
2023-01-15T13:09:53.904Z,15.13
2023-01-15T13:12:20.739Z,15.21
2023-01-15T13:14:47.615Z,15.40
2023-01-15T13:17:23.435Z,15.57
2023-01-15T13:20:05.986Z,15.79
2023-01-15T13:22:50.566Z,15.97
2023-01-15T13:25:34.667Z,16.13
2023-01-15T13:28:20.333Z,16.21
2023-01-15T13:31:06.819Z,16.19
2023-01-15T13:33:40.092Z,16.20
2023-01-15T13:36:15.008Z,16.11
2023-01-15T13:38:44.702Z,16.03
2023-01-15T13:41:20.866Z,16.05
2023-01-15T13:43:47.744Z,16.20
2023-01-15T13:46:21.059Z,16.22
2023-01-15T13:48:50.215Z,16.07
2023-01-15T13:51:28.080Z,16.02
2023-01-15T13:53:58.039Z,16.23
2023-01-15T13:56:31.303Z,16.20
2023-01-15T13:59:00.074Z,16.44
2023-01-15T14:01:33.753Z,16.61
2023-01-15T14:04:04.911Z,16.95
2023-01-15T14:06:40.564Z,16.84
2023-01-15T14:09:09.848Z,16.64
2023-01-15T14:11:43.178Z,16.68
2023-01-15T14:14:27.302Z,16.86
2023-01-15T14:17:05.128Z,17.31
2023-01-15T14:19:51.678Z,17.41
2023-01-15T14:22:38.824Z,17.51
2023-01-15T14:25:23.594Z,17.56
2023-01-15T14:28:04.414Z,17.44
2023-01-15T14:31:01.268Z,17.04
2023-01-15T14:33:36.912Z,17.26
2023-01-15T14:36:14.951Z,17.80
2023-01-15T14:38:48.198Z,18.13
2023-01-15T14:41:15.321Z,18.13
2023-01-15T14:43:49.516Z,17.76
2023-01-15T14:46:26.176Z,17.53
2023-01-15T14:48:53.000Z,17.32
2023-01-15T14:51:26.067Z,17.23
2023-01-15T14:53:57.960Z,17.18
2023-01-15T14:56:30.107Z,17.01
2023-01-15T14:59:03.395Z,16.98
2023-01-15T15:01:36.920Z,16.61
2023-01-15T15:04:18.854Z,16.65
2023-01-15T15:06:49.856Z,16.54
2023-01-15T15:09:27.742Z,16.49
2023-01-15T15:11:58.289Z,16.47
2023-01-15T15:14:26.713Z,16.57
2023-01-15T15:16:55.417Z,16.58
2023-01-15T15:19:29.290Z,16.48
2023-01-15T15:22:02.917Z,16.12
2023-01-15T15:24:32.455Z,16.17
2023-01-15T15:27:09.343Z,16.34
2023-01-15T15:29:37.442Z,16.38
2023-01-15T15:32:04.203Z,16.28
2023-01-15T15:34:33.955Z,16.24
2023-01-15T15:37:04.196Z,16.53
2023-01-15T15:39:38.906Z,16.72
2023-01-15T15:42:15.461Z,16.68
2023-01-15T15:44:50.466Z,16.41
2023-01-15T15:47:19.291Z,16.23
2023-01-15T15:49:45.926Z,16.05
2023-01-15T15:52:19.900Z,15.87
2023-01-15T15:54:57.445Z,15.73
2023-01-15T15:57:24.424Z,15.54
2023-01-15T15:59:53.281Z,15.35
2023-01-15T16:02:24.524Z,15.28
2023-01-15T16:04:53.479Z,14.99
2023-01-15T16:07:23.400Z,14.85
2023-01-15T16:09:53.042Z,14.79
2023-01-15T16:12:21.181Z,14.71
2023-01-15T16:14:48.832Z,14.57
2023-01-15T16:17:17.463Z,14.58
2023-01-15T16:19:44.937Z,14.56
2023-01-15T16:22:16.702Z,14.65
2023-01-15T16:24:53.724Z,14.74
2023-01-15T16:27:20.848Z,14.82
2023-01-15T16:29:50.985Z,14.93
2023-01-15T16:32:23.767Z,15.03
2023-01-15T16:34:51.304Z,14.97
2023-01-15T16:37:26.143Z,14.95
2023-01-15T16:39:52.984Z,14.84
2023-01-15T16:42:30.400Z,14.72
2023-01-15T16:45:00.263Z,14.58
2023-01-15T16:47:31.714Z,14.41
2023-01-15T16:50:29.942Z,14.29
2023-01-15T16:52:58.116Z,14.14
2023-01-15T16:55:41.244Z,13.99
2023-01-15T16:58:31.126Z,13.82
2023-01-15T17:00:57.881Z,13.75
2023-01-15T17:03:27.315Z,13.70
2023-01-15T17:05:56.789Z,13.57
2023-01-15T17:08:28.804Z,13.60
2023-01-15T17:10:57.936Z,13.61
2023-01-15T17:13:31.628Z,13.63
2023-01-15T17:16:14.685Z,13.53
2023-01-15T17:18:42.913Z,13.28
2023-01-15T17:21:15.658Z,13.16
2023-01-15T17:23:42.431Z,13.12
2023-01-15T17:26:16.784Z,13.04
2023-01-15T17:28:43.608Z,12.97
2023-01-15T17:31:20.070Z,12.90
2023-01-15T17:33:48.126Z,12.85
2023-01-15T17:36:14.801Z,12.84
2023-01-15T17:38:41.559Z,12.80
2023-01-15T17:41:10.106Z,12.75
2023-01-15T17:43:36.816Z,12.73
2023-01-15T17:46:03.604Z,12.73
2023-01-15T17:48:30.425Z,12.69
2023-01-15T17:51:01.127Z,12.58
2023-01-15T17:53:27.851Z,12.55
2023-01-15T17:55:54.546Z,12.60
2023-01-15T17:58:21.250Z,12.62
2023-01-15T18:00:49.316Z,12.67
2023-01-15T18:03:20.788Z,12.79
2023-01-15T18:05:50.481Z,12.85
2023-01-15T18:08:18.942Z,12.94
2023-01-15T18:10:45.679Z,12.97
2023-01-15T18:13:12.462Z,12.97
2023-01-15T18:15:39.265Z,12.93
2023-01-15T18:18:06.061Z,12.92
2023-01-15T18:20:32.765Z,12.91
2023-01-15T18:22:59.431Z,12.96
2023-01-15T18:25:27.469Z,13.02
2023-01-15T18:27:54.188Z,13.08
2023-01-15T18:30:21.234Z,13.07
2023-01-15T18:32:47.938Z,13.04
2023-01-15T18:35:14.674Z,13.07
2023-01-15T18:37:41.427Z,13.13
2023-01-15T18:40:09.522Z,13.19
2023-01-15T18:42:39.794Z,13.25
2023-01-15T18:45:07.182Z,13.26
2023-01-15T18:47:33.911Z,13.31
2023-01-15T18:50:00.637Z,13.40
2023-01-15T18:52:27.305Z,13.43
2023-01-15T18:54:53.945Z,13.46
2023-01-15T18:57:21.005Z,13.48
2023-01-15T18:59:49.268Z,13.48
2023-01-15T19:02:16.758Z,13.38
2023-01-15T19:04:43.499Z,13.39
2023-01-15T19:07:11.105Z,13.34
2023-01-15T19:09:38.185Z,13.27
2023-01-15T19:12:06.191Z,13.15
2023-01-15T19:14:33.321Z,13.13
2023-01-15T19:17:01.503Z,13.16
2023-01-15T19:19:28.672Z,13.13
2023-01-15T19:21:55.991Z,13.04
2023-01-15T19:24:22.764Z,13.09
2023-01-15T19:26:49.492Z,13.09
2023-01-15T19:29:16.132Z,13.12
2023-01-15T19:31:42.835Z,13.11
2023-01-15T19:34:32.758Z,13.02
2023-01-15T19:36:58.144Z,13.04
2023-01-15T19:39:25.078Z,13.11
2023-01-15T19:41:51.891Z,13.07
2023-01-15T19:44:18.612Z,13.07
2023-01-15T19:46:45.874Z,13.05
2023-01-15T19:49:18.547Z,12.98
2023-01-15T19:51:46.605Z,13.05
2023-01-15T19:54:13.437Z,13.13
2023-01-15T19:56:40.168Z,13.20
2023-01-15T19:59:07.912Z,13.24
2023-01-15T20:01:34.708Z,13.32
2023-01-15T20:04:01.495Z,13.40
2023-01-15T20:06:29.647Z,13.44
2023-01-15T20:08:56.346Z,13.50
2023-01-15T20:11:23.065Z,13.48
2023-01-15T20:13:51.374Z,13.47
2023-01-15T20:16:21.004Z,13.52
2023-01-15T20:18:48.947Z,13.61
2023-01-15T20:21:15.769Z,13.61
2023-01-15T20:23:44.580Z,13.57
2023-01-15T20:26:13.283Z,13.64
2023-01-15T20:28:41.101Z,13.65
2023-01-15T20:31:14.480Z,13.66
2023-01-15T20:33:41.211Z,13.67
2023-01-15T20:36:08.903Z,13.68
2023-01-15T20:38:35.591Z,13.68
2023-01-15T20:41:07.532Z,13.64
2023-01-15T20:43:34.266Z,13.56
2023-01-15T20:46:08.598Z,13.55
2023-01-15T20:48:35.442Z,13.51
2023-01-15T20:51:10.862Z,13.37
2023-01-15T20:53:37.573Z,13.25
2023-01-15T20:56:11.053Z,13.14
2023-01-15T20:58:39.225Z,13.03
2023-01-15T21:01:08.383Z,12.95
2023-01-15T21:03:35.509Z,12.84
2023-01-15T21:06:04.711Z,12.81
2023-01-15T21:08:32.146Z,12.74
2023-01-15T21:10:59.529Z,12.75
2023-01-15T21:13:26.223Z,12.71
2023-01-15T21:15:55.730Z,12.56
2023-01-15T21:18:24.063Z,12.43
2023-01-15T21:20:50.764Z,12.38
2023-01-15T21:23:17.456Z,12.41
2023-01-15T21:25:44.180Z,12.44
2023-01-15T21:28:10.853Z,12.43
2023-01-15T21:30:39.359Z,12.52
2023-01-15T21:33:08.890Z,12.64
2023-01-15T21:35:38.975Z,12.65
2023-01-15T21:38:05.851Z,12.73
2023-01-15T21:40:32.568Z,12.80
2023-01-15T21:42:59.219Z,12.79
2023-01-15T21:45:25.966Z,12.81
2023-01-15T21:47:52.654Z,12.83
2023-01-15T21:50:20.714Z,12.88
2023-01-15T21:52:47.667Z,12.90
2023-01-15T21:55:14.541Z,12.92
2023-01-15T21:57:41.260Z,13.00
2023-01-15T22:00:10.165Z,13.06
2023-01-15T22:02:37.258Z,13.19
2023-01-15T22:05:05.137Z,13.25
2023-01-15T22:07:33.187Z,13.11
2023-01-15T22:09:59.904Z,13.07
2023-01-15T22:12:26.639Z,13.12
2023-01-15T22:14:53.590Z,13.16
2023-01-15T22:17:20.566Z,13.14
2023-01-15T22:19:47.253Z,13.10
2023-01-15T22:22:13.911Z,12.96
2023-01-15T22:24:42.029Z,13.00
2023-01-15T22:27:13.400Z,13.13
2023-01-15T22:29:41.241Z,13.06
2023-01-15T22:32:09.800Z,13.16
2023-01-15T22:34:36.735Z,13.22
2023-01-15T22:37:03.461Z,13.28
2023-01-15T22:39:30.228Z,13.29
2023-01-15T22:41:58.345Z,13.31
2023-01-15T22:44:25.175Z,13.34
2023-01-15T22:46:51.876Z,13.32
2023-01-15T22:49:18.545Z,13.35
2023-01-15T22:51:45.208Z,13.37
2023-01-15T22:54:11.989Z,13.35
2023-01-15T22:56:38.819Z,13.43
2023-01-15T22:59:07.850Z,13.47
2023-01-15T23:01:34.674Z,13.58
2023-01-15T23:04:01.452Z,13.55
2023-01-15T23:06:28.129Z,13.58
2023-01-15T23:08:57.840Z,13.54
2023-01-15T23:11:24.889Z,13.46
2023-01-15T23:13:51.955Z,13.39
2023-01-15T23:16:20.409Z,13.38
2023-01-15T23:18:47.918Z,13.35
2023-01-15T23:21:17.845Z,13.37
2023-01-15T23:23:45.069Z,13.40
2023-01-15T23:26:14.829Z,13.38
2023-01-15T23:28:42.443Z,13.37
2023-01-15T23:31:09.873Z,13.40
2023-01-15T23:33:38.191Z,13.48
2023-01-15T23:36:05.466Z,13.61
2023-01-15T23:38:32.181Z,13.67
2023-01-15T23:40:58.914Z,13.75
2023-01-15T23:43:25.865Z,13.72
2023-01-15T23:45:52.635Z,13.73
2023-01-15T23:48:19.374Z,13.86
2023-01-15T23:50:47.442Z,13.82
2023-01-15T23:53:14.136Z,13.65
2023-01-15T23:55:40.807Z,13.59
2023-01-15T23:58:07.497Z,13.55
